sensor_id;sensor_type;location;lat;lon;timestamp;temperature;humidity
44900;DHT22;30628;51.188;6.770;2023-08-17T00:01:51;21.00;99.90
44900;DHT22;30628;51.188;6.770;2023-08-17T00:04:16;20.90;99.90
44900;DHT22;30628;51.188;6.770;2023-08-17T00:06:42;20.80;99.90
44900;DHT22;30628;51.188;6.770;2023-08-17T00:09:08;20.60;99.90
44900;DHT22;30628;51.188;6.770;2023-08-17T00:11:35;20.60;99.90
44900;DHT22;30628;51.188;6.770;2023-08-17T00:14:01;20.50;99.90
44900;DHT22;30628;51.188;6.770;2023-08-17T00:16:26;20.50;99.90
44900;DHT22;30628;51.188;6.770;2023-08-17T00:18:52;20.60;99.90
44900;DHT22;30628;51.188;6.770;2023-08-17T00:21:26;20.60;99.90
44900;DHT22;30628;51.188;6.770;2023-08-17T00:23:52;20.70;99.90
44900;DHT22;30628;51.188;6.770;2023-08-17T00:26:17;20.90;99.90
44900;DHT22;30628;51.188;6.770;2023-08-17T00:28:43;20.90;99.90
44900;DHT22;30628;51.188;6.770;2023-08-17T00:31:09;21.00;99.90
44900;DHT22;30628;51.188;6.770;2023-08-17T00:33:35;20.90;99.90
44900;DHT22;30628;51.188;6.770;2023-08-17T00:36:01;20.70;99.90
44900;DHT22;30628;51.188;6.770;2023-08-17T00:38:26;20.60;99.90
44900;DHT22;30628;51.188;6.770;2023-08-17T00:40:52;20.70;99.90
44900;DHT22;30628;51.188;6.770;2023-08-17T00:43:17;20.70;99.90
44900;DHT22;30628;51.188;6.770;2023-08-17T00:45:44;20.70;99.90
44900;DHT22;30628;51.188;6.770;2023-08-17T00:48:10;20.60;99.90
44900;DHT22;30628;51.188;6.770;2023-08-17T00:50:37;20.60;99.90
44900;DHT22;30628;51.188;6.770;2023-08-17T00:53:03;20.30;99.90
44900;DHT22;30628;51.188;6.770;2023-08-17T00:55:29;20.40;99.90
44900;DHT22;30628;51.188;6.770;2023-08-17T00:57:56;20.40;99.90
44900;DHT22;30628;51.188;6.770;2023-08-17T01:00:24;20.30;99.90
44900;DHT22;30628;51.188;6.770;2023-08-17T01:02:50;20.30;99.90
44900;DHT22;30628;51.188;6.770;2023-08-17T01:05:16;20.30;99.90
44900;DHT22;30628;51.188;6.770;2023-08-17T01:07:42;20.40;99.90
44900;DHT22;30628;51.188;6.770;2023-08-17T01:10:08;20.40;99.90
44900;DHT22;30628;51.188;6.770;2023-08-17T01:15:28;20.30;99.90
44900;DHT22;30628;51.188;6.770;2023-08-17T01:18:08;20.30;99.90
44900;DHT22;30628;51.188;6.770;2023-08-17T01:20:36;20.40;99.90
44900;DHT22;30628;51.188;6.770;2023-08-17T01:23:06;20.40;99.90
44900;DHT22;30628;51.188;6.770;2023-08-17T01:25:32;20.40;99.90
44900;DHT22;30628;51.188;6.770;2023-08-17T01:28:03;20.40;99.90
44900;DHT22;30628;51.188;6.770;2023-08-17T01:31:14;20.30;99.90
44900;DHT22;30628;51.188;6.770;2023-08-17T01:33:55;20.30;99.90
44900;DHT22;30628;51.188;6.770;2023-08-17T01:36:24;20.20;99.90
44900;DHT22;30628;51.188;6.770;2023-08-17T01:38:52;20.40;99.90
44900;DHT22;30628;51.188;6.770;2023-08-17T01:41:20;20.40;99.90
44900;DHT22;30628;51.188;6.770;2023-08-17T01:43:48;20.40;99.90
44900;DHT22;30628;51.188;6.770;2023-08-17T01:46:14;20.50;99.90
44900;DHT22;30628;51.188;6.770;2023-08-17T01:48:44;20.50;99.90
44900;DHT22;30628;51.188;6.770;2023-08-17T01:51:11;20.60;99.90
44900;DHT22;30628;51.188;6.770;2023-08-17T01:53:37;20.50;99.90
44900;DHT22;30628;51.188;6.770;2023-08-17T01:56:02;20.50;99.90
44900;DHT22;30628;51.188;6.770;2023-08-17T01:58:28;20.50;99.90
44900;DHT22;30628;51.188;6.770;2023-08-17T02:00:54;20.60;99.90
44900;DHT22;30628;51.188;6.770;2023-08-17T02:03:19;20.60;99.90
44900;DHT22;30628;51.188;6.770;2023-08-17T02:05:46;20.60;99.90
44900;DHT22;30628;51.188;6.770;2023-08-17T02:08:11;20.70;99.90
44900;DHT22;30628;51.188;6.770;2023-08-17T02:10:37;20.70;99.90
44900;DHT22;30628;51.188;6.770;2023-08-17T02:13:03;20.70;99.90
44900;DHT22;30628;51.188;6.770;2023-08-17T02:15:29;20.90;99.90
44900;DHT22;30628;51.188;6.770;2023-08-17T02:17:54;20.90;99.90
44900;DHT22;30628;51.188;6.770;2023-08-17T02:20:20;21.20;99.90
44900;DHT22;30628;51.188;6.770;2023-08-17T02:22:46;21.20;99.90
44900;DHT22;30628;51.188;6.770;2023-08-17T02:25:11;21.30;99.90
44900;DHT22;30628;51.188;6.770;2023-08-17T02:27:37;21.50;99.90
44900;DHT22;30628;51.188;6.770;2023-08-17T02:30:03;21.60;99.90
44900;DHT22;30628;51.188;6.770;2023-08-17T02:32:29;21.60;99.90
44900;DHT22;30628;51.188;6.770;2023-08-17T02:34:55;21.60;99.90
44900;DHT22;30628;51.188;6.770;2023-08-17T02:37:20;21.60;99.90
44900;DHT22;30628;51.188;6.770;2023-08-17T02:39:46;21.50;99.90
44900;DHT22;30628;51.188;6.770;2023-08-17T02:42:11;21.60;99.90
44900;DHT22;30628;51.188;6.770;2023-08-17T02:44:37;21.60;99.90
44900;DHT22;30628;51.188;6.770;2023-08-17T02:47:03;21.40;99.90
44900;DHT22;30628;51.188;6.770;2023-08-17T02:49:28;21.40;99.90
44900;DHT22;30628;51.188;6.770;2023-08-17T02:51:54;21.40;99.90
44900;DHT22;30628;51.188;6.770;2023-08-17T02:54:19;21.40;99.90
44900;DHT22;30628;51.188;6.770;2023-08-17T02:56:45;21.40;99.90
44900;DHT22;30628;51.188;6.770;2023-08-17T02:59:11;21.40;99.90
44900;DHT22;30628;51.188;6.770;2023-08-17T03:01:36;21.30;99.90
44900;DHT22;30628;51.188;6.770;2023-08-17T03:04:02;21.10;99.90
44900;DHT22;30628;51.188;6.770;2023-08-17T03:06:27;20.90;99.90
44900;DHT22;30628;51.188;6.770;2023-08-17T03:08:53;20.70;99.90
44900;DHT22;30628;51.188;6.770;2023-08-17T03:11:20;20.80;99.90
44900;DHT22;30628;51.188;6.770;2023-08-17T03:13:46;20.80;99.90
44900;DHT22;30628;51.188;6.770;2023-08-17T03:16:13;20.70;99.90
44900;DHT22;30628;51.188;6.770;2023-08-17T03:18:39;20.60;99.90
44900;DHT22;30628;51.188;6.770;2023-08-17T03:21:04;20.50;99.90
44900;DHT22;30628;51.188;6.770;2023-08-17T03:23:30;20.50;99.90
44900;DHT22;30628;51.188;6.770;2023-08-17T03:25:56;20.60;99.90
44900;DHT22;30628;51.188;6.770;2023-08-17T03:28:21;20.50;99.90
44900;DHT22;30628;51.188;6.770;2023-08-17T03:30:47;20.20;99.90
44900;DHT22;30628;51.188;6.770;2023-08-17T03:33:17;20.20;99.90
44900;DHT22;30628;51.188;6.770;2023-08-17T03:35:43;20.10;99.90
44900;DHT22;30628;51.188;6.770;2023-08-17T03:38:09;20.00;99.90
44900;DHT22;30628;51.188;6.770;2023-08-17T03:40:34;20.10;99.90
44900;DHT22;30628;51.188;6.770;2023-08-17T03:43:00;20.20;99.90
44900;DHT22;30628;51.188;6.770;2023-08-17T03:45:25;20.00;99.90
44900;DHT22;30628;51.188;6.770;2023-08-17T03:47:51;20.00;99.90
44900;DHT22;30628;51.188;6.770;2023-08-17T03:50:16;19.90;99.90
44900;DHT22;30628;51.188;6.770;2023-08-17T03:52:42;20.00;99.90
44900;DHT22;30628;51.188;6.770;2023-08-17T03:55:09;20.00;99.90
44900;DHT22;30628;51.188;6.770;2023-08-17T03:57:34;19.80;99.90
44900;DHT22;30628;51.188;6.770;2023-08-17T04:00:00;19.90;99.90
44900;DHT22;30628;51.188;6.770;2023-08-17T04:02:26;19.80;99.90
44900;DHT22;30628;51.188;6.770;2023-08-17T04:04:51;19.70;99.90
44900;DHT22;30628;51.188;6.770;2023-08-17T04:07:21;19.70;99.90
44900;DHT22;30628;51.188;6.770;2023-08-17T04:09:47;19.60;99.90
44900;DHT22;30628;51.188;6.770;2023-08-17T04:12:13;19.50;99.90
44900;DHT22;30628;51.188;6.770;2023-08-17T04:14:39;19.60;99.90
44900;DHT22;30628;51.188;6.770;2023-08-17T04:17:04;19.50;99.90
44900;DHT22;30628;51.188;6.770;2023-08-17T04:19:30;19.60;99.90
44900;DHT22;30628;51.188;6.770;2023-08-17T04:21:55;19.60;99.90
44900;DHT22;30628;51.188;6.770;2023-08-17T04:24:21;19.50;99.90
44900;DHT22;30628;51.188;6.770;2023-08-17T04:26:47;19.50;99.90
44900;DHT22;30628;51.188;6.770;2023-08-17T04:29:13;19.50;99.90
44900;DHT22;30628;51.188;6.770;2023-08-17T04:31:38;19.60;99.90
44900;DHT22;30628;51.188;6.770;2023-08-17T04:34:04;19.60;99.90
44900;DHT22;30628;51.188;6.770;2023-08-17T04:36:30;19.70;99.90
44900;DHT22;30628;51.188;6.770;2023-08-17T04:38:56;19.50;99.90
44900;DHT22;30628;51.188;6.770;2023-08-17T04:41:21;19.60;99.90
44900;DHT22;30628;51.188;6.770;2023-08-17T04:43:47;19.60;99.90
44900;DHT22;30628;51.188;6.770;2023-08-17T04:46:14;19.80;99.90
44900;DHT22;30628;51.188;6.770;2023-08-17T04:48:40;19.80;99.90
44900;DHT22;30628;51.188;6.770;2023-08-17T04:51:06;19.80;99.90
44900;DHT22;30628;51.188;6.770;2023-08-17T04:53:31;19.90;99.90
44900;DHT22;30628;51.188;6.770;2023-08-17T04:55:58;19.90;99.90
44900;DHT22;30628;51.188;6.770;2023-08-17T04:58:24;19.90;99.90
44900;DHT22;30628;51.188;6.770;2023-08-17T05:00:49;19.90;99.90
44900;DHT22;30628;51.188;6.770;2023-08-17T05:03:15;19.80;99.90
44900;DHT22;30628;51.188;6.770;2023-08-17T05:05:41;20.00;99.90
44900;DHT22;30628;51.188;6.770;2023-08-17T05:08:06;19.90;99.90
44900;DHT22;30628;51.188;6.770;2023-08-17T05:10:32;19.90;99.90
44900;DHT22;30628;51.188;6.770;2023-08-17T05:12:57;19.90;99.90
44900;DHT22;30628;51.188;6.770;2023-08-17T05:15:23;20.00;99.90
44900;DHT22;30628;51.188;6.770;2023-08-17T05:17:49;19.80;99.90
44900;DHT22;30628;51.188;6.770;2023-08-17T05:20:14;19.80;99.90
44900;DHT22;30628;51.188;6.770;2023-08-17T05:22:40;19.80;99.90
44900;DHT22;30628;51.188;6.770;2023-08-17T05:25:06;19.80;99.90
44900;DHT22;30628;51.188;6.770;2023-08-17T05:27:31;19.80;99.90
44900;DHT22;30628;51.188;6.770;2023-08-17T05:29:57;19.80;99.90
44900;DHT22;30628;51.188;6.770;2023-08-17T05:32:23;19.90;99.90
44900;DHT22;30628;51.188;6.770;2023-08-17T05:34:48;19.90;99.90
44900;DHT22;30628;51.188;6.770;2023-08-17T05:37:14;19.90;99.90
44900;DHT22;30628;51.188;6.770;2023-08-17T05:39:41;19.90;99.90
44900;DHT22;30628;51.188;6.770;2023-08-17T05:42:07;19.90;99.90
44900;DHT22;30628;51.188;6.770;2023-08-17T05:44:32;19.90;99.90
44900;DHT22;30628;51.188;6.770;2023-08-17T05:46:58;19.80;99.90
44900;DHT22;30628;51.188;6.770;2023-08-17T05:49:23;19.80;99.90
44900;DHT22;30628;51.188;6.770;2023-08-17T05:51:49;19.70;99.90
44900;DHT22;30628;51.188;6.770;2023-08-17T05:54:15;19.80;99.90
44900;DHT22;30628;51.188;6.770;2023-08-17T05:56:40;19.90;99.90
44900;DHT22;30628;51.188;6.770;2023-08-17T05:59:12;19.90;99.90
44900;DHT22;30628;51.188;6.770;2023-08-17T06:01:38;19.80;99.90
44900;DHT22;30628;51.188;6.770;2023-08-17T06:04:04;19.70;99.90
44900;DHT22;30628;51.188;6.770;2023-08-17T06:06:30;19.80;99.90
44900;DHT22;30628;51.188;6.770;2023-08-17T06:08:56;19.80;99.90
44900;DHT22;30628;51.188;6.770;2023-08-17T06:11:21;19.80;99.90
44900;DHT22;30628;51.188;6.770;2023-08-17T06:13:48;19.90;99.90
44900;DHT22;30628;51.188;6.770;2023-08-17T06:16:14;20.00;99.90
44900;DHT22;30628;51.188;6.770;2023-08-17T06:18:39;20.00;99.90
44900;DHT22;30628;51.188;6.770;2023-08-17T06:21:05;20.10;99.90
44900;DHT22;30628;51.188;6.770;2023-08-17T06:23:31;20.30;99.90
44900;DHT22;30628;51.188;6.770;2023-08-17T06:25:57;20.30;99.90
44900;DHT22;30628;51.188;6.770;2023-08-17T06:28:24;20.30;99.90
44900;DHT22;30628;51.188;6.770;2023-08-17T06:30:56;20.30;99.90
44900;DHT22;30628;51.188;6.770;2023-08-17T06:33:22;20.30;99.90
44900;DHT22;30628;51.188;6.770;2023-08-17T06:35:51;20.10;99.90
44900;DHT22;30628;51.188;6.770;2023-08-17T06:38:17;20.00;99.90
44900;DHT22;30628;51.188;6.770;2023-08-17T06:40:43;20.00;99.90
44900;DHT22;30628;51.188;6.770;2023-08-17T06:43:08;20.00;99.90
44900;DHT22;30628;51.188;6.770;2023-08-17T06:45:35;20.10;99.90
44900;DHT22;30628;51.188;6.770;2023-08-17T06:48:00;20.10;99.90
44900;DHT22;30628;51.188;6.770;2023-08-17T06:50:26;20.10;99.90
44900;DHT22;30628;51.188;6.770;2023-08-17T06:52:53;20.10;99.90
44900;DHT22;30628;51.188;6.770;2023-08-17T06:55:19;20.10;99.90
44900;DHT22;30628;51.188;6.770;2023-08-17T06:57:45;20.20;99.90
44900;DHT22;30628;51.188;6.770;2023-08-17T07:00:11;20.20;99.90
44900;DHT22;30628;51.188;6.770;2023-08-17T07:02:37;20.30;99.90
44900;DHT22;30628;51.188;6.770;2023-08-17T07:05:03;20.40;99.90
44900;DHT22;30628;51.188;6.770;2023-08-17T07:07:30;20.50;99.90
44900;DHT22;30628;51.188;6.770;2023-08-17T07:09:59;20.50;99.90
44900;DHT22;30628;51.188;6.770;2023-08-17T07:12:25;20.50;99.90
44900;DHT22;30628;51.188;6.770;2023-08-17T07:14:51;20.40;99.90
44900;DHT22;30628;51.188;6.770;2023-08-17T07:17:16;20.50;99.90
44900;DHT22;30628;51.188;6.770;2023-08-17T07:19:42;20.40;99.90
44900;DHT22;30628;51.188;6.770;2023-08-17T07:22:08;20.40;99.90
44900;DHT22;30628;51.188;6.770;2023-08-17T07:24:34;20.50;99.90
44900;DHT22;30628;51.188;6.770;2023-08-17T07:26:59;20.50;99.90
44900;DHT22;30628;51.188;6.770;2023-08-17T07:29:25;20.50;99.90
44900;DHT22;30628;51.188;6.770;2023-08-17T07:31:51;20.60;99.90
44900;DHT22;30628;51.188;6.770;2023-08-17T07:34:16;20.60;99.90
44900;DHT22;30628;51.188;6.770;2023-08-17T07:36:42;20.70;99.90
44900;DHT22;30628;51.188;6.770;2023-08-17T07:39:07;20.80;99.90
44900;DHT22;30628;51.188;6.770;2023-08-17T07:41:33;20.80;99.90
44900;DHT22;30628;51.188;6.770;2023-08-17T07:43:59;20.90;99.90
44900;DHT22;30628;51.188;6.770;2023-08-17T07:46:24;21.00;99.90
44900;DHT22;30628;51.188;6.770;2023-08-17T07:49:05;20.90;99.90
44900;DHT22;30628;51.188;6.770;2023-08-17T07:51:31;20.80;99.90
44900;DHT22;30628;51.188;6.770;2023-08-17T07:53:59;20.80;99.90
44900;DHT22;30628;51.188;6.770;2023-08-17T07:56:25;20.80;99.90
44900;DHT22;30628;51.188;6.770;2023-08-17T07:58:53;20.80;99.90
44900;DHT22;30628;51.188;6.770;2023-08-17T08:01:22;21.00;99.90
44900;DHT22;30628;51.188;6.770;2023-08-17T08:03:47;20.80;99.90
44900;DHT22;30628;51.188;6.770;2023-08-17T08:06:13;21.00;99.90
44900;DHT22;30628;51.188;6.770;2023-08-17T08:08:40;21.10;99.90
44900;DHT22;30628;51.188;6.770;2023-08-17T08:11:06;21.20;99.90
44900;DHT22;30628;51.188;6.770;2023-08-17T08:13:31;21.20;99.90
44900;DHT22;30628;51.188;6.770;2023-08-17T08:15:58;21.20;99.90
44900;DHT22;30628;51.188;6.770;2023-08-17T08:18:24;21.20;99.90
44900;DHT22;30628;51.188;6.770;2023-08-17T08:20:50;21.10;99.90
44900;DHT22;30628;51.188;6.770;2023-08-17T08:23:16;21.10;99.90
44900;DHT22;30628;51.188;6.770;2023-08-17T08:25:41;21.10;99.90
44900;DHT22;30628;51.188;6.770;2023-08-17T08:28:07;21.10;99.90
44900;DHT22;30628;51.188;6.770;2023-08-17T08:30:34;21.10;99.90
44900;DHT22;30628;51.188;6.770;2023-08-17T08:32:59;21.30;99.90
44900;DHT22;30628;51.188;6.770;2023-08-17T08:35:25;21.30;99.90
44900;DHT22;30628;51.188;6.770;2023-08-17T08:37:51;21.20;99.90
44900;DHT22;30628;51.188;6.770;2023-08-17T08:40:17;21.10;99.90
44900;DHT22;30628;51.188;6.770;2023-08-17T08:42:44;21.10;99.90
44900;DHT22;30628;51.188;6.770;2023-08-17T08:45:10;21.10;99.90
44900;DHT22;30628;51.188;6.770;2023-08-17T08:47:39;21.20;99.90
44900;DHT22;30628;51.188;6.770;2023-08-17T08:50:07;21.30;99.90
44900;DHT22;30628;51.188;6.770;2023-08-17T08:52:35;21.20;99.90
44900;DHT22;30628;51.188;6.770;2023-08-17T08:55:22;21.20;99.90
44900;DHT22;30628;51.188;6.770;2023-08-17T08:57:49;21.30;99.90
44900;DHT22;30628;51.188;6.770;2023-08-17T09:00:16;21.30;99.90
44900;DHT22;30628;51.188;6.770;2023-08-17T09:02:42;21.20;99.90
44900;DHT22;30628;51.188;6.770;2023-08-17T09:05:10;21.30;99.90
44900;DHT22;30628;51.188;6.770;2023-08-17T09:07:37;21.20;99.90
44900;DHT22;30628;51.188;6.770;2023-08-17T09:10:03;21.10;99.90
44900;DHT22;30628;51.188;6.770;2023-08-17T09:12:30;21.20;99.90
44900;DHT22;30628;51.188;6.770;2023-08-17T09:14:56;21.50;99.90
44900;DHT22;30628;51.188;6.770;2023-08-17T09:17:25;21.70;99.90
44900;DHT22;30628;51.188;6.770;2023-08-17T09:19:51;21.90;99.90
44900;DHT22;30628;51.188;6.770;2023-08-17T09:22:25;21.90;99.90
44900;DHT22;30628;51.188;6.770;2023-08-17T09:25:06;22.10;99.90
44900;DHT22;30628;51.188;6.770;2023-08-17T09:27:32;22.10;99.90
44900;DHT22;30628;51.188;6.770;2023-08-17T09:30:06;22.20;99.90
44900;DHT22;30628;51.188;6.770;2023-08-17T09:32:32;21.80;99.90
44900;DHT22;30628;51.188;6.770;2023-08-17T09:35:02;21.60;99.90
44900;DHT22;30628;51.188;6.770;2023-08-17T09:37:29;21.60;99.90
44900;DHT22;30628;51.188;6.770;2023-08-17T09:39:55;21.70;99.90
44900;DHT22;30628;51.188;6.770;2023-08-17T09:42:21;21.50;99.90
44900;DHT22;30628;51.188;6.770;2023-08-17T09:44:48;21.40;99.90
44900;DHT22;30628;51.188;6.770;2023-08-17T09:47:15;21.50;99.90
44900;DHT22;30628;51.188;6.770;2023-08-17T09:49:47;21.80;99.90
44900;DHT22;30628;51.188;6.770;2023-08-17T09:52:18;21.80;99.90
44900;DHT22;30628;51.188;6.770;2023-08-17T09:54:43;21.80;99.90
44900;DHT22;30628;51.188;6.770;2023-08-17T09:57:11;21.70;99.90
44900;DHT22;30628;51.188;6.770;2023-08-17T09:59:37;21.60;99.90
44900;DHT22;30628;51.188;6.770;2023-08-17T10:02:03;21.50;99.90
44900;DHT22;30628;51.188;6.770;2023-08-17T10:04:34;21.40;99.90
44900;DHT22;30628;51.188;6.770;2023-08-17T10:07:03;21.40;99.90
44900;DHT22;30628;51.188;6.770;2023-08-17T10:09:36;21.40;99.90
44900;DHT22;30628;51.188;6.770;2023-08-17T10:12:09;21.30;99.90
44900;DHT22;30628;51.188;6.770;2023-08-17T10:14:37;21.30;99.90
44900;DHT22;30628;51.188;6.770;2023-08-17T10:17:08;21.20;99.90
44900;DHT22;30628;51.188;6.770;2023-08-17T10:19:46;21.30;99.90
44900;DHT22;30628;51.188;6.770;2023-08-17T10:25:11;21.50;99.90
44900;DHT22;30628;51.188;6.770;2023-08-17T10:27:41;21.60;99.90
44900;DHT22;30628;51.188;6.770;2023-08-17T10:30:09;21.80;99.90
44900;DHT22;30628;51.188;6.770;2023-08-17T10:32:36;21.80;99.90
44900;DHT22;30628;51.188;6.770;2023-08-17T10:35:03;21.80;99.90
44900;DHT22;30628;51.188;6.770;2023-08-17T10:37:31;21.70;99.90
44900;DHT22;30628;51.188;6.770;2023-08-17T10:39:56;21.80;99.90
44900;DHT22;30628;51.188;6.770;2023-08-17T10:42:33;21.80;99.90
44900;DHT22;30628;51.188;6.770;2023-08-17T10:44:59;21.80;99.90
44900;DHT22;30628;51.188;6.770;2023-08-17T10:47:31;21.80;99.90
44900;DHT22;30628;51.188;6.770;2023-08-17T10:50:24;21.90;99.90
44900;DHT22;30628;51.188;6.770;2023-08-17T10:53:09;21.90;99.90
44900;DHT22;30628;51.188;6.770;2023-08-17T10:55:44;21.80;99.90
44900;DHT22;30628;51.188;6.770;2023-08-17T10:58:10;21.80;99.90
44900;DHT22;30628;51.188;6.770;2023-08-17T11:00:39;21.80;99.90
44900;DHT22;30628;51.188;6.770;2023-08-17T11:03:18;21.90;99.90
44900;DHT22;30628;51.188;6.770;2023-08-17T11:05:49;21.90;99.90
44900;DHT22;30628;51.188;6.770;2023-08-17T11:08:33;21.80;99.90
44900;DHT22;30628;51.188;6.770;2023-08-17T11:13:34;21.70;99.90
44900;DHT22;30628;51.188;6.770;2023-08-17T11:16:01;21.70;99.90
44900;DHT22;30628;51.188;6.770;2023-08-17T11:18:27;21.80;99.90
44900;DHT22;30628;51.188;6.770;2023-08-17T11:20:53;21.90;99.90
44900;DHT22;30628;51.188;6.770;2023-08-17T11:23:20;21.90;99.90
44900;DHT22;30628;51.188;6.770;2023-08-17T11:25:46;22.00;99.90
44900;DHT22;30628;51.188;6.770;2023-08-17T11:28:12;22.10;99.90
44900;DHT22;30628;51.188;6.770;2023-08-17T11:30:40;22.30;99.90
44900;DHT22;30628;51.188;6.770;2023-08-17T11:33:06;22.30;99.90
44900;DHT22;30628;51.188;6.770;2023-08-17T11:35:32;22.40;99.90
44900;DHT22;30628;51.188;6.770;2023-08-17T11:37:58;22.40;99.90
44900;DHT22;30628;51.188;6.770;2023-08-17T11:40:25;22.40;99.90
44900;DHT22;30628;51.188;6.770;2023-08-17T11:42:51;22.60;99.90
44900;DHT22;30628;51.188;6.770;2023-08-17T11:45:18;22.60;99.90
44900;DHT22;30628;51.188;6.770;2023-08-17T11:47:44;22.60;99.90
44900;DHT22;30628;51.188;6.770;2023-08-17T11:50:13;22.60;99.90
44900;DHT22;30628;51.188;6.770;2023-08-17T11:52:39;22.70;99.90
44900;DHT22;30628;51.188;6.770;2023-08-17T11:55:06;22.60;99.90
44900;DHT22;30628;51.188;6.770;2023-08-17T11:57:32;22.80;99.90
44900;DHT22;30628;51.188;6.770;2023-08-17T11:59:59;22.80;99.90
44900;DHT22;30628;51.188;6.770;2023-08-17T12:02:26;22.90;99.90
44900;DHT22;30628;51.188;6.770;2023-08-17T12:04:52;22.80;99.90
44900;DHT22;30628;51.188;6.770;2023-08-17T12:07:19;22.90;99.90
44900;DHT22;30628;51.188;6.770;2023-08-17T12:09:48;23.00;99.90
44900;DHT22;30628;51.188;6.770;2023-08-17T12:12:17;23.00;99.90
44900;DHT22;30628;51.188;6.770;2023-08-17T12:14:43;23.00;99.90
44900;DHT22;30628;51.188;6.770;2023-08-17T12:17:19;23.00;99.90
44900;DHT22;30628;51.188;6.770;2023-08-17T12:19:49;23.10;99.90
44900;DHT22;30628;51.188;6.770;2023-08-17T12:22:14;23.30;99.90
44900;DHT22;30628;51.188;6.770;2023-08-17T12:24:40;23.30;99.90
44900;DHT22;30628;51.188;6.770;2023-08-17T12:27:06;23.40;99.90
44900;DHT22;30628;51.188;6.770;2023-08-17T12:29:32;23.40;99.90
44900;DHT22;30628;51.188;6.770;2023-08-17T12:31:58;23.40;99.90
44900;DHT22;30628;51.188;6.770;2023-08-17T12:34:24;23.50;99.90
44900;DHT22;30628;51.188;6.770;2023-08-17T12:36:50;23.60;99.90
44900;DHT22;30628;51.188;6.770;2023-08-17T12:39:16;23.60;99.90
44900;DHT22;30628;51.188;6.770;2023-08-17T12:41:42;23.70;99.90
44900;DHT22;30628;51.188;6.770;2023-08-17T12:44:09;23.70;99.90
44900;DHT22;30628;51.188;6.770;2023-08-17T12:46:41;23.70;99.90
44900;DHT22;30628;51.188;6.770;2023-08-17T12:49:07;23.70;99.90
44900;DHT22;30628;51.188;6.770;2023-08-17T12:51:33;23.70;99.90
44900;DHT22;30628;51.188;6.770;2023-08-17T12:53:59;23.70;99.90
44900;DHT22;30628;51.188;6.770;2023-08-17T12:56:24;23.70;99.90
44900;DHT22;30628;51.188;6.770;2023-08-17T12:58:50;23.70;99.90
44900;DHT22;30628;51.188;6.770;2023-08-17T13:01:15;23.70;99.90
44900;DHT22;30628;51.188;6.770;2023-08-17T13:03:41;23.70;99.90
44900;DHT22;30628;51.188;6.770;2023-08-17T13:06:07;23.50;99.90
44900;DHT22;30628;51.188;6.770;2023-08-17T13:08:33;23.40;99.90
44900;DHT22;30628;51.188;6.770;2023-08-17T13:10:59;23.40;99.90
44900;DHT22;30628;51.188;6.770;2023-08-17T13:13:25;23.50;99.90
44900;DHT22;30628;51.188;6.770;2023-08-17T13:15:50;23.40;99.90
44900;DHT22;30628;51.188;6.770;2023-08-17T13:18:16;23.50;99.90
44900;DHT22;30628;51.188;6.770;2023-08-17T13:20:42;23.60;99.90
44900;DHT22;30628;51.188;6.770;2023-08-17T13:23:08;23.60;99.90
44900;DHT22;30628;51.188;6.770;2023-08-17T13:25:34;23.70;99.90
44900;DHT22;30628;51.188;6.770;2023-08-17T13:27:59;23.70;99.90
44900;DHT22;30628;51.188;6.770;2023-08-17T13:30:25;23.70;99.90
44900;DHT22;30628;51.188;6.770;2023-08-17T13:36:13;23.60;99.90
44900;DHT22;30628;51.188;6.770;2023-08-17T13:38:39;23.60;99.90
44900;DHT22;30628;51.188;6.770;2023-08-17T13:41:05;23.50;99.90
44900;DHT22;30628;51.188;6.770;2023-08-17T13:43:30;23.20;99.90
44900;DHT22;30628;51.188;6.770;2023-08-17T13:45:56;23.30;99.90
44900;DHT22;30628;51.188;6.770;2023-08-17T13:48:22;23.30;99.90
44900;DHT22;30628;51.188;6.770;2023-08-17T13:50:47;23.50;99.90
44900;DHT22;30628;51.188;6.770;2023-08-17T13:53:13;23.60;99.90
44900;DHT22;30628;51.188;6.770;2023-08-17T13:55:39;23.70;99.90
44900;DHT22;30628;51.188;6.770;2023-08-17T13:58:04;23.70;99.90
44900;DHT22;30628;51.188;6.770;2023-08-17T14:00:30;23.50;99.90
44900;DHT22;30628;51.188;6.770;2023-08-17T14:02:56;23.60;99.90
44900;DHT22;30628;51.188;6.770;2023-08-17T14:05:21;23.40;99.90
44900;DHT22;30628;51.188;6.770;2023-08-17T14:07:48;23.20;99.90
44900;DHT22;30628;51.188;6.770;2023-08-17T14:10:14;23.20;99.90
44900;DHT22;30628;51.188;6.770;2023-08-17T14:12:40;23.20;99.90
44900;DHT22;30628;51.188;6.770;2023-08-17T14:15:06;23.30;99.90
44900;DHT22;30628;51.188;6.770;2023-08-17T14:17:32;23.40;99.90
44900;DHT22;30628;51.188;6.770;2023-08-17T14:19:57;23.50;99.90
44900;DHT22;30628;51.188;6.770;2023-08-17T14:22:23;23.50;99.90
44900;DHT22;30628;51.188;6.770;2023-08-17T14:24:48;23.60;99.90
44900;DHT22;30628;51.188;6.770;2023-08-17T14:27:14;23.50;99.90
44900;DHT22;30628;51.188;6.770;2023-08-17T14:29:40;23.50;99.90
44900;DHT22;30628;51.188;6.770;2023-08-17T14:32:06;23.40;99.90
44900;DHT22;30628;51.188;6.770;2023-08-17T14:34:32;23.40;99.90
44900;DHT22;30628;51.188;6.770;2023-08-17T14:36:57;23.50;99.90
44900;DHT22;30628;51.188;6.770;2023-08-17T14:39:23;23.40;99.90
44900;DHT22;30628;51.188;6.770;2023-08-17T14:41:48;23.40;99.90
44900;DHT22;30628;51.188;6.770;2023-08-17T14:44:14;23.20;99.90
44900;DHT22;30628;51.188;6.770;2023-08-17T14:46:40;23.30;99.90
44900;DHT22;30628;51.188;6.770;2023-08-17T14:49:07;23.20;99.90
44900;DHT22;30628;51.188;6.770;2023-08-17T14:51:37;23.10;99.90
44900;DHT22;30628;51.188;6.770;2023-08-17T14:54:04;23.10;99.90
44900;DHT22;30628;51.188;6.770;2023-08-17T14:56:30;23.10;99.90
44900;DHT22;30628;51.188;6.770;2023-08-17T14:58:55;23.10;99.90
44900;DHT22;30628;51.188;6.770;2023-08-17T15:01:21;23.20;99.90
44900;DHT22;30628;51.188;6.770;2023-08-17T15:03:47;23.20;99.90
44900;DHT22;30628;51.188;6.770;2023-08-17T15:06:12;23.00;99.90
44900;DHT22;30628;51.188;6.770;2023-08-17T15:08:38;22.90;99.90
44900;DHT22;30628;51.188;6.770;2023-08-17T15:11:04;22.90;99.90
44900;DHT22;30628;51.188;6.770;2023-08-17T15:13:29;23.00;99.90
44900;DHT22;30628;51.188;6.770;2023-08-17T15:16:05;23.00;99.90
44900;DHT22;30628;51.188;6.770;2023-08-17T15:18:30;22.90;99.90
44900;DHT22;30628;51.188;6.770;2023-08-17T15:20:56;22.90;99.90
44900;DHT22;30628;51.188;6.770;2023-08-17T15:23:21;22.90;99.90
44900;DHT22;30628;51.188;6.770;2023-08-17T15:25:47;22.90;99.90
44900;DHT22;30628;51.188;6.770;2023-08-17T15:28:13;22.80;99.90
44900;DHT22;30628;51.188;6.770;2023-08-17T15:30:38;22.70;99.90
44900;DHT22;30628;51.188;6.770;2023-08-17T15:33:04;22.50;99.90
44900;DHT22;30628;51.188;6.770;2023-08-17T15:35:30;22.60;99.90
44900;DHT22;30628;51.188;6.770;2023-08-17T15:37:55;22.50;99.90
44900;DHT22;30628;51.188;6.770;2023-08-17T15:40:21;22.50;99.90